Time;durP1;ratioP1;P1;durP2;ratioP2;P2;SDS_P1;SDS_P2;PMS_P1;PMS_P2;Temp;Humidity;BMP_temperature;BMP_pressure;BME280_temperature;BME280_humidity;BME280_pressure;Samples;Min_cycle;Max_cycle;Signal;HPM_P1;HPM_P2
2023/01/17 00:00:19;;;;;;;;;;;15.20;68.70;;;;;;5097865;28;19912;-84
2023/01/17 00:02:45;;;;;;;;;;;15.10;68.80;;;;;;5098865;28;19919;-84
2023/01/17 00:10:42;;;;;;;;;;;15.10;69.30;;;;;;5097160;28;19973;-84
2023/01/17 00:13:11;;;;;;;;;;;15.00;69.40;;;;;;5097046;28;19908;-83
2023/01/17 00:15:38;;;;;;;;;;;15.00;69.50;;;;;;5095897;28;20346;-84
2023/01/17 00:18:04;;;;;;;;;;;15.00;69.60;;;;;;5096335;28;19912;-83
2023/01/17 00:26:04;;;;;;;;;;;14.90;70.00;;;;;;5097144;28;19919;-83
2023/01/17 01:35:44;;;;;;;;;;;14.30;73.10;;;;;;5100458;28;19939;-83
2023/01/17 01:38:10;;;;;;;;;;;14.30;73.20;;;;;;5101144;28;19908;-83
2023/01/17 01:40:41;;;;;;;;;;;14.30;73.40;;;;;;5100484;28;19912;-83
2023/01/17 01:43:09;;;;;;;;;;;14.30;73.40;;;;;;5100361;28;20008;-83
2023/01/17 01:45:35;;;;;;;;;;;14.30;73.50;;;;;;5100804;28;19909;-82
2023/01/17 01:48:03;;;;;;;;;;;14.30;73.60;;;;;;5100317;28;19915;-82
2023/01/17 01:50:30;;;;;;;;;;;14.20;73.60;;;;;;5101566;28;19915;-82
2023/01/17 01:52:57;;;;;;;;;;;14.20;73.70;;;;;;5100795;28;19916;-82
2023/01/17 01:55:26;;;;;;;;;;;14.20;73.90;;;;;;5098737;28;19970;-82
2023/01/17 01:57:53;;;;;;;;;;;14.20;74.10;;;;;;5100156;28;19908;-82
2023/01/17 02:00:23;;;;;;;;;;;14.20;74.20;;;;;;5099607;28;19920;-83
2023/01/17 02:02:50;;;;;;;;;;;14.20;74.20;;;;;;5100018;28;19985;-83
2023/01/17 02:05:33;;;;;;;;;;;14.20;74.20;;;;;;5099597;28;20268;-83
2023/01/17 02:08:03;;;;;;;;;;;14.10;74.50;;;;;;5101122;28;19916;-82
2023/01/17 02:10:33;;;;;;;;;;;14.10;74.40;;;;;;5100845;28;19908;-82
2023/01/17 02:12:58;;;;;;;;;;;14.10;74.50;;;;;;5100331;28;19912;-82
2023/01/17 02:15:28;;;;;;;;;;;14.10;74.60;;;;;;5099320;28;19912;-82
2023/01/17 02:18:03;;;;;;;;;;;14.10;74.60;;;;;;5099174;28;20226;-82
2023/01/17 02:20:49;;;;;;;;;;;14.10;74.70;;;;;;5099103;28;19920;-82
2023/01/17 02:23:15;;;;;;;;;;;14.10;74.90;;;;;;5099217;28;19922;-82
2023/01/17 02:25:40;;;;;;;;;;;14.10;74.80;;;;;;5098560;28;19991;-82
2023/01/17 02:28:24;;;;;;;;;;;14.10;74.90;;;;;;5098393;28;20257;-82
2023/01/17 02:30:56;;;;;;;;;;;14.10;75.00;;;;;;5075151;28;19958;-82
2023/01/17 02:33:36;;;;;;;;;;;14.10;75.00;;;;;;5096778;28;19908;-82
2023/01/17 02:36:03;;;;;;;;;;;14.10;75.10;;;;;;5096455;28;19916;-82
2023/01/17 02:38:32;;;;;;;;;;;14.10;75.10;;;;;;5094818;28;19908;-82
2023/01/17 02:41:06;;;;;;;;;;;14.10;75.10;;;;;;5096433;28;19916;-82
2023/01/17 02:43:32;;;;;;;;;;;14.10;75.10;;;;;;5096499;28;19908;-82
2023/01/17 02:45:58;;;;;;;;;;;14.00;75.00;;;;;;5097271;28;19912;-83
2023/01/17 02:48:25;;;;;;;;;;;14.10;75.10;;;;;;5097007;28;19995;-83
2023/01/17 02:51:02;;;;;;;;;;;14.10;75.10;;;;;;5097785;28;19916;-83
2023/01/17 02:53:46;;;;;;;;;;;14.00;75.10;;;;;;5097189;28;19942;-82
2023/01/17 02:56:12;;;;;;;;;;;14.00;75.10;;;;;;5096510;28;19962;-82
2023/01/17 02:58:49;;;;;;;;;;;14.00;75.00;;;;;;5098347;28;19908;-82
2023/01/17 03:01:34;;;;;;;;;;;14.00;75.00;;;;;;5098688;28;19916;-82
2023/01/17 03:04:02;;;;;;;;;;;14.00;75.00;;;;;;5099359;28;19927;-82
2023/01/17 03:06:36;;;;;;;;;;;14.00;75.20;;;;;;5099404;28;20004;-82
2023/01/17 03:09:02;;;;;;;;;;;14.00;75.20;;;;;;5098610;28;20003;-82
2023/01/17 03:11:34;;;;;;;;;;;13.90;75.30;;;;;;5099357;28;19908;-82
2023/01/17 03:14:00;;;;;;;;;;;13.90;75.30;;;;;;5099098;28;19919;-82
2023/01/17 03:16:27;;;;;;;;;;;13.90;75.40;;;;;;5099276;28;20006;-82
2023/01/17 03:18:53;;;;;;;;;;;13.90;75.40;;;;;;5099665;28;19915;-81
2023/01/17 03:21:19;;;;;;;;;;;13.90;75.50;;;;;;5099000;28;19919;-81
2023/01/17 03:23:45;;;;;;;;;;;13.90;75.60;;;;;;5098885;28;19913;-81
2023/01/17 03:26:10;;;;;;;;;;;13.90;75.60;;;;;;5098231;28;19909;-81
2023/01/17 03:28:36;;;;;;;;;;;13.80;75.50;;;;;;5098086;28;19965;-81
2023/01/17 03:31:24;;;;;;;;;;;13.80;75.60;;;;;;5098792;28;19908;-82
2023/01/17 03:33:50;;;;;;;;;;;13.80;75.70;;;;;;5098881;28;20007;-82
2023/01/17 03:36:15;;;;;;;;;;;13.80;75.80;;;;;;5099004;28;19947;-82
2023/01/17 03:38:41;;;;;;;;;;;13.80;75.80;;;;;;5099108;28;19915;-82
2023/01/17 03:41:08;;;;;;;;;;;13.80;75.90;;;;;;5098740;28;19951;-82
2023/01/17 03:43:34;;;;;;;;;;;13.70;76.10;;;;;;5098046;28;19947;-82
2023/01/17 03:46:03;;;;;;;;;;;13.70;76.30;;;;;;5097722;28;20340;-82
2023/01/17 03:48:29;;;;;;;;;;;13.70;76.50;;;;;;5098170;28;20289;-82
2023/01/17 03:50:56;;;;;;;;;;;13.60;76.60;;;;;;5098008;28;19966;-82
2023/01/17 03:53:22;;;;;;;;;;;13.60;76.70;;;;;;5097916;28;19908;-82
2023/01/17 03:55:47;;;;;;;;;;;13.60;77.00;;;;;;5098239;28;20011;-82
2023/01/17 03:58:13;;;;;;;;;;;13.60;77.00;;;;;;5097483;28;19908;-82
2023/01/17 04:00:43;;;;;;;;;;;13.70;77.10;;;;;;5098102;28;19913;-82
2023/01/17 04:03:08;;;;;;;;;;;13.70;76.90;;;;;;5098406;28;19961;-81
2023/01/17 04:05:34;;;;;;;;;;;13.80;76.70;;;;;;5098035;28;20010;-81
2023/01/17 04:07:59;;;;;;;;;;;13.90;76.10;;;;;;5097306;28;20013;-82
2023/01/17 04:10:25;;;;;;;;;;;14.00;75.40;;;;;;5097741;28;20068;-82
2023/01/17 04:12:51;;;;;;;;;;;14.20;74.70;;;;;;5097548;28;19952;-82
2023/01/17 04:15:16;;;;;;;;;;;14.30;73.80;;;;;;5097830;28;20419;-82
2023/01/17 04:17:42;;;;;;;;;;;14.50;72.80;;;;;;5097754;28;19919;-82
2023/01/17 04:20:46;;;;;;;;;;;14.60;71.70;;;;;;5097810;28;19924;-82
2023/01/17 04:23:12;;;;;;;;;;;14.80;71.00;;;;;;5059875;28;20024;-82
2023/01/17 04:25:37;;;;;;;;;;;14.90;69.90;;;;;;5059399;28;19913;-82
2023/01/17 04:28:03;;;;;;;;;;;15.10;69.20;;;;;;5086206;28;19912;-82
2023/01/17 04:30:30;;;;;;;;;;;15.20;68.50;;;;;;5097452;28;19908;-83
2023/01/17 04:32:57;;;;;;;;;;;15.20;68.00;;;;;;5096384;28;21210;-82
2023/01/17 04:35:23;;;;;;;;;;;15.30;67.50;;;;;;5097892;28;19971;-82
2023/01/17 04:37:49;;;;;;;;;;;15.50;66.90;;;;;;5097709;28;19923;-82
2023/01/17 04:40:14;;;;;;;;;;;15.60;66.30;;;;;;5098490;28;19965;-82
2023/01/17 04:42:43;;;;;;;;;;;15.70;66.40;;;;;;5097592;28;19916;-82
2023/01/17 04:45:10;;;;;;;;;;;15.70;65.20;;;;;;5098044;28;19972;-82
2023/01/17 04:47:35;;;;;;;;;;;15.80;64.90;;;;;;5097568;28;19912;-82
2023/01/17 04:50:01;;;;;;;;;;;15.80;64.60;;;;;;5098054;28;19926;-82
2023/01/17 04:52:26;;;;;;;;;;;15.80;64.50;;;;;;5097496;28;19912;-82
2023/01/17 04:54:52;;;;;;;;;;;15.80;64.20;;;;;;5097349;28;19943;-82
2023/01/17 04:57:19;;;;;;;;;;;15.90;64.10;;;;;;5097374;28;19939;-82
2023/01/17 04:59:45;;;;;;;;;;;15.90;63.90;;;;;;5096866;28;20008;-82
2023/01/17 05:02:11;;;;;;;;;;;16.00;63.70;;;;;;5095677;28;19915;-82
2023/01/17 05:04:37;;;;;;;;;;;16.00;63.50;;;;;;5095963;28;19912;-82
2023/01/17 05:07:05;;;;;;;;;;;16.00;63.20;;;;;;5097347;28;19908;-82
2023/01/17 05:09:31;;;;;;;;;;;16.10;62.80;;;;;;5097026;28;19951;-82
2023/01/17 05:11:56;;;;;;;;;;;16.20;62.60;;;;;;5096862;28;19989;-82
2023/01/17 05:14:25;;;;;;;;;;;16.30;62.30;;;;;;5095767;28;20198;-82
2023/01/17 05:16:51;;;;;;;;;;;16.30;61.90;;;;;;5096545;28;19948;-82
2023/01/17 05:19:17;;;;;;;;;;;16.40;61.60;;;;;;5096736;28;19912;-82
2023/01/17 05:21:42;;;;;;;;;;;16.40;61.40;;;;;;5097600;28;19912;-82
2023/01/17 05:24:08;;;;;;;;;;;16.50;61.20;;;;;;5096493;28;19908;-81
2023/01/17 05:26:34;;;;;;;;;;;16.50;61.00;;;;;;5096170;28;19919;-81
2023/01/17 05:28:59;;;;;;;;;;;16.50;60.70;;;;;;5095976;28;19912;-81
2023/01/17 05:31:25;;;;;;;;;;;16.50;60.60;;;;;;5096335;28;19912;-82
2023/01/17 05:33:50;;;;;;;;;;;16.60;60.50;;;;;;5096752;28;19908;-83
2023/01/17 05:36:15;;;;;;;;;;;16.60;60.40;;;;;;5096414;28;19916;-83
2023/01/17 05:38:41;;;;;;;;;;;16.50;60.40;;;;;;5097271;28;19915;-82
2023/01/17 05:41:07;;;;;;;;;;;16.50;60.50;;;;;;5096863;28;19912;-84
2023/01/17 05:43:32;;;;;;;;;;;16.50;60.60;;;;;;5094221;28;19907;-84
2023/01/17 05:45:58;;;;;;;;;;;16.50;60.70;;;;;;5092307;28;19923;-83
2023/01/17 05:48:23;;;;;;;;;;;16.50;60.90;;;;;;5091275;28;20048;-83
2023/01/17 05:50:51;;;;;;;;;;;16.50;61.10;;;;;;5089288;28;20385;-83
2023/01/17 05:53:16;;;;;;;;;;;16.40;61.10;;;;;;5088644;28;19908;-83
2023/01/17 05:55:46;;;;;;;;;;;16.50;61.30;;;;;;5092188;28;20315;-84
2023/01/17 05:58:17;;;;;;;;;;;16.40;61.30;;;;;;5091439;28;19908;-84
2023/01/17 06:00:42;;;;;;;;;;;16.40;61.50;;;;;;5091697;28;20002;-84
2023/01/17 06:03:08;;;;;;;;;;;16.40;61.50;;;;;;5089965;28;20053;-84
2023/01/17 06:05:33;;;;;;;;;;;16.40;61.60;;;;;;5092143;28;19920;-83
2023/01/17 06:07:59;;;;;;;;;;;16.40;61.60;;;;;;5092780;28;19908;-84
2023/01/17 06:10:25;;;;;;;;;;;16.40;61.60;;;;;;5091853;28;19908;-84
2023/01/17 06:12:59;;;;;;;;;;;16.50;61.60;;;;;;5089262;28;19961;-82
2023/01/17 06:15:24;;;;;;;;;;;16.40;61.60;;;;;;5088002;28;20211;-84
2023/01/17 06:17:50;;;;;;;;;;;16.40;61.70;;;;;;5092387;28;20073;-83
2023/01/17 06:20:16;;;;;;;;;;;16.40;61.80;;;;;;5091684;28;19920;-84
2023/01/17 06:22:41;;;;;;;;;;;16.40;61.80;;;;;;5092769;28;20555;-83
2023/01/17 06:25:07;;;;;;;;;;;16.40;61.80;;;;;;5092936;28;20346;-84
2023/01/17 06:27:33;;;;;;;;;;;16.40;61.80;;;;;;5092499;28;19939;-83
2023/01/17 06:29:58;;;;;;;;;;;16.40;61.80;;;;;;5091910;28;19965;-82
2023/01/17 06:32:24;;;;;;;;;;;16.40;61.80;;;;;;5092227;28;19961;-84
2023/01/17 06:34:49;;;;;;;;;;;16.40;61.80;;;;;;5092419;28;19915;-83
2023/01/17 06:37:15;;;;;;;;;;;16.40;61.80;;;;;;5090967;28;19931;-83
2023/01/17 06:39:40;;;;;;;;;;;16.40;62.00;;;;;;5090448;28;20308;-83
2023/01/17 06:42:06;;;;;;;;;;;16.40;62.10;;;;;;5088712;28;19908;-83
2023/01/17 06:44:32;;;;;;;;;;;16.40;62.10;;;;;;5089696;28;19912;-83
2023/01/17 06:46:57;;;;;;;;;;;16.40;62.10;;;;;;5088552;28;20165;-83
2023/01/17 06:49:23;;;;;;;;;;;16.40;62.20;;;;;;5090197;28;19908;-83
2023/01/17 06:51:48;;;;;;;;;;;16.40;62.50;;;;;;5092523;28;19988;-83
2023/01/17 06:54:14;;;;;;;;;;;16.40;62.90;;;;;;5091254;28;19920;-83
2023/01/17 06:56:40;;;;;;;;;;;16.40;63.20;;;;;;5092732;28;19974;-83
2023/01/17 06:59:05;;;;;;;;;;;16.40;63.50;;;;;;5091834;28;20001;-83
2023/01/17 07:01:31;;;;;;;;;;;16.40;63.70;;;;;;5088152;28;20185;-83
2023/01/17 07:03:57;;;;;;;;;;;16.50;64.00;;;;;;5088317;28;19969;-84
2023/01/17 07:06:27;;;;;;;;;;;16.50;64.30;;;;;;5088997;28;19919;-84
2023/01/17 07:08:56;;;;;;;;;;;16.50;64.60;;;;;;5090348;28;20030;-83
2023/01/17 07:11:22;;;;;;;;;;;16.50;65.40;;;;;;5088855;28;20075;-84
2023/01/17 07:13:48;;;;;;;;;;;16.40;64.90;;;;;;5088084;28;19908;-84
2023/01/17 07:16:14;;;;;;;;;;;16.40;65.00;;;;;;5089532;28;19931;-83
2023/01/17 07:18:40;;;;;;;;;;;16.50;65.10;;;;;;5088827;28;19912;-84
2023/01/17 07:21:10;;;;;;;;;;;16.50;65.10;;;;;;5086024;28;19959;-84
2023/01/17 07:23:36;;;;;;;;;;;16.50;65.10;;;;;;5086626;28;20000;-84
2023/01/17 07:26:02;;;;;;;;;;;16.50;65.30;;;;;;5087429;28;20006;-83
2023/01/17 07:28:28;;;;;;;;;;;16.50;65.40;;;;;;5087974;28;20204;-83
2023/01/17 07:30:53;;;;;;;;;;;16.50;65.40;;;;;;5089319;28;20081;-83
2023/01/17 07:33:19;;;;;;;;;;;16.50;65.50;;;;;;5087026;28;20285;-83
2023/01/17 07:35:45;;;;;;;;;;;16.50;65.50;;;;;;5087759;28;19920;-84
2023/01/17 07:38:15;;;;;;;;;;;16.50;65.40;;;;;;5088592;28;19908;-83
2023/01/17 07:40:40;;;;;;;;;;;16.50;65.30;;;;;;5087107;28;19973;-83
2023/01/17 07:43:12;;;;;;;;;;;16.50;65.30;;;;;;5085848;28;19915;-83
2023/01/17 07:45:45;;;;;;;;;;;16.50;65.40;;;;;;5088931;28;19908;-84
2023/01/17 07:48:11;;;;;;;;;;;16.50;65.50;;;;;;5089073;28;20378;-84
2023/01/17 07:50:37;;;;;;;;;;;16.50;65.50;;;;;;5087121;28;19908;-84
2023/01/17 07:53:03;;;;;;;;;;;16.50;65.40;;;;;;5087211;28;19908;-84
2023/01/17 07:55:28;;;;;;;;;;;16.50;65.30;;;;;;5086023;28;19961;-84
2023/01/17 07:57:54;;;;;;;;;;;16.50;65.20;;;;;;5085828;28;20482;-84
2023/01/17 08:00:21;;;;;;;;;;;16.40;65.00;;;;;;5088872;28;20020;-84
2023/01/17 08:02:47;;;;;;;;;;;16.40;64.80;;;;;;5089692;28;19934;-84
2023/01/17 08:05:13;;;;;;;;;;;16.40;64.70;;;;;;5089614;28;20289;-84
2023/01/17 08:07:39;;;;;;;;;;;16.40;64.50;;;;;;5088436;28;19908;-84
2023/01/17 08:10:06;;;;;;;;;;;16.40;64.40;;;;;;5086561;28;19908;-84
2023/01/17 08:12:31;;;;;;;;;;;16.40;64.30;;;;;;5085713;28;19908;-84
2023/01/17 08:14:57;;;;;;;;;;;16.40;64.20;;;;;;5088382;28;20239;-83
2023/01/17 08:17:22;;;;;;;;;;;16.40;64.10;;;;;;5088440;28;19915;-84
2023/01/17 08:19:50;;;;;;;;;;;16.40;64.00;;;;;;5087407;28;19919;-83
2023/01/17 08:22:16;;;;;;;;;;;16.40;63.60;;;;;;5089415;28;19908;-84
2023/01/17 08:24:43;;;;;;;;;;;16.40;63.50;;;;;;5088652;28;19912;-84
2023/01/17 08:27:09;;;;;;;;;;;16.40;63.20;;;;;;5087665;28;19923;-84
2023/01/17 08:29:34;;;;;;;;;;;16.40;63.10;;;;;;5087148;28;19908;-84
2023/01/17 08:32:00;;;;;;;;;;;16.40;63.00;;;;;;5087841;28;19912;-84
2023/01/17 08:34:26;;;;;;;;;;;16.40;62.90;;;;;;5088035;28;19919;-84
2023/01/17 08:36:52;;;;;;;;;;;16.40;62.70;;;;;;5086676;28;19943;-84
2023/01/17 08:39:18;;;;;;;;;;;16.40;62.70;;;;;;5086829;28;19966;-84
2023/01/17 08:41:44;;;;;;;;;;;16.30;62.50;;;;;;5086544;28;19919;-84
2023/01/17 08:44:10;;;;;;;;;;;16.30;62.50;;;;;;5086671;28;19908;-84
2023/01/17 08:46:36;;;;;;;;;;;16.30;62.50;;;;;;5084455;28;19959;-83
2023/01/17 08:49:02;;;;;;;;;;;16.30;62.30;;;;;;5085345;28;19968;-84
2023/01/17 08:51:30;;;;;;;;;;;16.30;62.30;;;;;;5084274;28;19916;-84
2023/01/17 08:53:58;;;;;;;;;;;16.30;62.90;;;;;;5085773;28;19916;-83
2023/01/17 08:56:27;;;;;;;;;;;16.30;62.10;;;;;;5084115;28;20090;-83
2023/01/17 08:58:57;;;;;;;;;;;16.30;62.10;;;;;;5086435;28;19909;-84
2023/01/17 09:01:23;;;;;;;;;;;16.20;62.00;;;;;;5085734;28;20391;-84
2023/01/17 09:03:50;;;;;;;;;;;16.30;62.00;;;;;;5085696;28;19939;-84
2023/01/17 09:06:16;;;;;;;;;;;16.30;61.80;;;;;;5084991;28;19951;-84
2023/01/17 09:08:45;;;;;;;;;;;16.30;61.70;;;;;;5086841;28;19935;-84
2023/01/17 09:11:12;;;;;;;;;;;16.30;61.80;;;;;;5082656;28;19938;-84
2023/01/17 09:13:38;;;;;;;;;;;16.20;61.80;;;;;;5083959;28;19908;-84
2023/01/17 09:16:04;;;;;;;;;;;16.20;61.90;;;;;;5085089;28;19919;-84
2023/01/17 09:18:31;;;;;;;;;;;16.10;62.00;;;;;;5086286;28;20181;-84
2023/01/17 09:20:58;;;;;;;;;;;16.10;62.10;;;;;;5083346;28;20196;-84
2023/01/17 09:23:24;;;;;;;;;;;16.10;62.10;;;;;;5083968;28;19978;-83
2023/01/17 09:25:53;;;;;;;;;;;16.10;62.00;;;;;;5085200;28;19919;-83
2023/01/17 09:28:19;;;;;;;;;;;16.10;61.80;;;;;;5085742;28;19919;-83
2023/01/17 09:30:44;;;;;;;;;;;16.20;61.60;;;;;;5086399;28;19908;-83
2023/01/17 09:33:10;;;;;;;;;;;16.20;61.40;;;;;;5085626;28;20084;-84
2023/01/17 09:35:35;;;;;;;;;;;16.20;61.10;;;;;;5083777;28;19923;-83
2023/01/17 09:38:01;;;;;;;;;;;16.20;60.80;;;;;;5083853;28;20201;-83
2023/01/17 09:40:26;;;;;;;;;;;16.30;60.30;;;;;;5083578;28;19918;-83
2023/01/17 09:42:54;;;;;;;;;;;16.30;60.00;;;;;;5086445;28;20212;-83
2023/01/17 09:45:20;;;;;;;;;;;16.40;59.80;;;;;;5086846;28;19919;-83
2023/01/17 09:47:47;;;;;;;;;;;16.50;59.70;;;;;;5086577;28;19908;-83
2023/01/17 09:50:15;;;;;;;;;;;16.60;59.60;;;;;;5086220;28;19908;-83
2023/01/17 09:52:42;;;;;;;;;;;16.80;59.50;;;;;;5090147;28;19908;-83
2023/01/17 09:55:12;;;;;;;;;;;16.80;59.30;;;;;;5091964;28;20355;-83
2023/01/17 09:57:42;;;;;;;;;;;16.90;59.20;;;;;;5090656;28;19972;-83
2023/01/17 10:00:16;;;;;;;;;;;16.90;59.20;;;;;;5091233;28;19980;-83
2023/01/17 10:02:51;;;;;;;;;;;16.90;59.10;;;;;;5089612;28;19958;-83
2023/01/17 10:05:24;;;;;;;;;;;17.00;59.10;;;;;;5089318;28;20185;-83
2023/01/17 10:08:09;;;;;;;;;;;17.00;59.10;;;;;;5090187;28;19915;-83
2023/01/17 10:10:42;;;;;;;;;;;17.00;59.10;;;;;;5088563;28;19908;-85
2023/01/17 10:13:15;;;;;;;;;;;17.20;58.90;;;;;;5089649;28;19916;-84
2023/01/17 10:15:43;;;;;;;;;;;17.50;58.50;;;;;;5090505;28;19919;-84
2023/01/17 10:18:23;;;;;;;;;;;17.70;58.00;;;;;;5088837;28;19908;-85
2023/01/17 10:20:49;;;;;;;;;;;17.80;57.70;;;;;;5087667;28;19918;-84
2023/01/17 10:23:31;;;;;;;;;;;18.00;57.30;;;;;;5087598;28;19962;-84
2023/01/17 10:26:02;;;;;;;;;;;18.20;57.00;;;;;;5085370;28;20178;-84
2023/01/17 10:28:39;;;;;;;;;;;18.30;56.60;;;;;;5085389;28;19908;-84
2023/01/17 10:31:14;;;;;;;;;;;18.40;56.30;;;;;;5085680;28;20164;-83
2023/01/17 10:33:45;;;;;;;;;;;18.50;56.10;;;;;;5084957;28;19919;-83
2023/01/17 10:36:14;;;;;;;;;;;18.60;55.90;;;;;;5083449;28;19977;-83
2023/01/17 10:38:43;;;;;;;;;;;18.70;55.70;;;;;;5086086;28;19908;-84
2023/01/17 10:41:17;;;;;;;;;;;18.70;55.60;;;;;;5088411;28;20281;-83
2023/01/17 10:44:02;;;;;;;;;;;18.80;55.50;;;;;;5087870;28;20299;-84
2023/01/17 10:46:36;;;;;;;;;;;18.80;55.40;;;;;;5085829;28;20002;-83
2023/01/17 10:49:02;;;;;;;;;;;18.90;55.30;;;;;;5086703;28;20151;-83
2023/01/17 10:51:42;;;;;;;;;;;18.90;55.20;;;;;;5085791;28;19908;-83
2023/01/17 10:54:08;;;;;;;;;;;18.90;55.20;;;;;;5085853;28;20209;-84
2023/01/17 10:56:34;;;;;;;;;;;18.90;55.10;;;;;;5087429;28;19908;-84
2023/01/17 10:59:08;;;;;;;;;;;18.90;55.20;;;;;;5086538;28;19923;-84
2023/01/17 11:01:34;;;;;;;;;;;18.80;55.20;;;;;;5085770;28;19939;-84
2023/01/17 11:04:00;;;;;;;;;;;18.70;55.30;;;;;;5086550;28;19912;-84
2023/01/17 11:06:26;;;;;;;;;;;18.70;55.40;;;;;;5087586;28;20069;-84
2023/01/17 11:08:51;;;;;;;;;;;18.70;55.50;;;;;;5088362;28;19909;-84
2023/01/17 11:11:17;;;;;;;;;;;18.70;55.50;;;;;;5086753;28;19908;-84
2023/01/17 11:13:44;;;;;;;;;;;18.70;55.50;;;;;;5086436;28;19919;-83
2023/01/17 11:16:16;;;;;;;;;;;18.70;55.60;;;;;;5085900;28;20135;-84
2023/01/17 11:18:41;;;;;;;;;;;18.60;55.60;;;;;;5086909;28;20229;-83
2023/01/17 11:21:19;;;;;;;;;;;18.60;55.70;;;;;;5087052;28;19970;-83
2023/01/17 11:23:46;;;;;;;;;;;18.50;55.70;;;;;;5087536;28;19938;-84
2023/01/17 11:26:21;;;;;;;;;;;18.50;55.80;;;;;;5089044;28;20403;-84
2023/01/17 11:28:47;;;;;;;;;;;18.40;56.00;;;;;;5088926;28;20289;-84
2023/01/17 11:31:15;;;;;;;;;;;18.30;56.10;;;;;;5086872;28;19916;-84
2023/01/17 11:33:47;;;;;;;;;;;18.20;56.30;;;;;;5085051;28;19985;-83
2023/01/17 11:36:20;;;;;;;;;;;18.20;56.50;;;;;;5086681;28;20040;-83
2023/01/17 11:39:05;;;;;;;;;;;18.10;56.70;;;;;;5086598;28;20304;-84
2023/01/17 11:41:35;;;;;;;;;;;18.00;56.80;;;;;;5084089;28;20027;-83
2023/01/17 11:44:02;;;;;;;;;;;17.90;57.00;;;;;;5087299;28;20013;-84
2023/01/17 11:46:28;;;;;;;;;;;17.90;57.20;;;;;;5085657;28;20117;-83
2023/01/17 11:48:55;;;;;;;;;;;17.90;57.20;;;;;;5086550;28;19908;-84
2023/01/17 11:51:38;;;;;;;;;;;17.90;57.30;;;;;;5086876;28;19989;-83
2023/01/17 11:54:16;;;;;;;;;;;17.80;57.40;;;;;;5085448;28;19935;-84
2023/01/17 11:56:45;;;;;;;;;;;17.80;57.60;;;;;;5086054;28;20009;-84
2023/01/17 11:59:16;;;;;;;;;;;17.70;57.80;;;;;;5084644;28;20393;-84
2023/01/17 12:01:48;;;;;;;;;;;17.60;57.90;;;;;;5086240;28;19916;-84
2023/01/17 12:04:18;;;;;;;;;;;17.50;58.10;;;;;;5083145;28;20075;-83
2023/01/17 12:06:44;;;;;;;;;;;17.50;58.20;;;;;;5086128;28;19923;-84
2023/01/17 12:09:24;;;;;;;;;;;17.50;58.30;;;;;;5088442;28;19908;-84
2023/01/17 12:14:41;;;;;;;;;;;17.50;58.40;;;;;;5089928;28;19915;-84
2023/01/17 12:17:26;;;;;;;;;;;17.50;58.40;;;;;;5091416;28;19981;-84
2023/01/17 12:20:04;;;;;;;;;;;17.50;58.40;;;;;;5087737;28;20060;-84
2023/01/17 12:22:32;;;;;;;;;;;17.50;58.40;;;;;;5090211;28;19916;-85
2023/01/17 12:25:16;;;;;;;;;;;17.50;58.50;;;;;;5090665;28;19912;-85
2023/01/17 12:27:54;;;;;;;;;;;17.50;58.60;;;;;;5086580;28;19912;-85
2023/01/17 12:30:23;;;;;;;;;;;17.50;58.60;;;;;;5085563;28;20082;-85
2023/01/17 12:33:07;;;;;;;;;;;17.50;58.70;;;;;;5087161;28;19912;-85
2023/01/17 12:35:37;;;;;;;;;;;17.40;58.60;;;;;;5083081;28;19931;-86
2023/01/17 12:38:07;;;;;;;;;;;17.50;58.70;;;;;;5085155;28;19927;-86
2023/01/17 12:40:53;;;;;;;;;;;17.40;58.70;;;;;;5085123;28;19912;-85
2023/01/17 12:43:31;;;;;;;;;;;17.40;58.70;;;;;;5075174;28;19908;-86
2023/01/17 12:45:57;;;;;;;;;;;17.40;58.80;;;;;;5086487;28;20060;-85
2023/01/17 12:48:28;;;;;;;;;;;17.40;58.80;;;;;;5087139;28;19972;-86
2023/01/17 12:50:53;;;;;;;;;;;17.40;58.70;;;;;;5086969;28;19908;-85
2023/01/17 12:53:36;;;;;;;;;;;17.50;58.70;;;;;;5082025;28;19919;-85
2023/01/17 12:56:23;;;;;;;;;;;17.50;58.80;;;;;;5084997;28;20261;-85
2023/01/17 12:58:54;;;;;;;;;;;17.50;58.70;;;;;;5085849;28;20047;-85
2023/01/17 13:01:27;;;;;;;;;;;17.50;58.70;;;;;;5085430;28;19947;-85
2023/01/17 13:04:07;;;;;;;;;;;17.50;58.70;;;;;;5083876;28;20162;-86
2023/01/17 13:06:53;;;;;;;;;;;17.50;58.70;;;;;;5086182;28;19919;-85
2023/01/17 13:09:20;;;;;;;;;;;17.50;58.70;;;;;;5045673;28;20235;-86
2023/01/17 13:11:52;;;;;;;;;;;17.50;58.70;;;;;;5087140;28;19908;-86
2023/01/17 13:14:18;;;;;;;;;;;17.50;58.80;;;;;;5087477;28;20006;-86
2023/01/17 13:16:43;;;;;;;;;;;17.40;58.80;;;;;;5087596;28;20344;-85
2023/01/17 13:19:28;;;;;;;;;;;17.40;58.90;;;;;;5083075;28;20298;-85
2023/01/17 13:21:55;;;;;;;;;;;17.40;58.90;;;;;;5082616;28;19919;-85
2023/01/17 13:24:24;;;;;;;;;;;17.40;59.10;;;;;;5085371;28;19948;-85
2023/01/17 13:27:03;;;;;;;;;;;17.30;59.10;;;;;;5090109;28;20332;-85
2023/01/17 13:29:34;;;;;;;;;;;17.30;59.30;;;;;;5088779;28;19920;-85
2023/01/17 13:32:09;;;;;;;;;;;17.30;59.40;;;;;;5088058;28;19923;-85
2023/01/17 13:34:35;;;;;;;;;;;17.20;59.50;;;;;;5086643;28;20107;-84
2023/01/17 13:37:01;;;;;;;;;;;17.20;59.60;;;;;;5087352;28;20308;-85
2023/01/17 13:39:39;;;;;;;;;;;17.20;59.70;;;;;;5087384;28;19978;-84
2023/01/17 13:42:10;;;;;;;;;;;17.20;59.70;;;;;;5088111;28;19974;-82
2023/01/17 13:44:36;;;;;;;;;;;17.20;59.80;;;;;;5085937;28;19915;-86
2023/01/17 13:47:03;;;;;;;;;;;17.20;59.90;;;;;;5086810;28;19912;-87
2023/01/17 13:49:29;;;;;;;;;;;17.10;60.10;;;;;;5087414;28;20033;-87
2023/01/17 13:52:27;;;;;;;;;;;17.10;60.30;;;;;;5087245;28;20205;-87
2023/01/17 13:55:00;;;;;;;;;;;17.10;60.40;;;;;;5089557;28;19923;-87
2023/01/17 13:57:27;;;;;;;;;;;17.10;60.60;;;;;;5089908;28;19916;-86
2023/01/17 13:59:53;;;;;;;;;;;17.10;60.60;;;;;;5089826;28;19973;-88
2023/01/17 14:02:40;;;;;;;;;;;17.00;60.70;;;;;;5089548;28;19965;-88
2023/01/17 14:05:09;;;;;;;;;;;17.00;60.90;;;;;;5095310;28;19940;-88
2023/01/17 14:07:41;;;;;;;;;;;17.00;61.00;;;;;;5094167;28;19912;-87
2023/01/17 14:10:39;;;;;;;;;;;16.90;61.20;;;;;;5089354;28;19934;-87
2023/01/17 14:13:23;;;;;;;;;;;16.90;61.60;;;;;;5079889;28;19943;-83
2023/01/17 14:15:49;;;;;;;;;;;16.80;62.00;;;;;;5090716;28;20154;-82
2023/01/17 14:18:36;;;;;;;;;;;16.90;66.30;;;;;;5091095;28;19916;-81
2023/01/17 14:21:04;;;;;;;;;;;16.80;65.20;;;;;;5089547;28;19934;-85
2023/01/17 14:23:32;;;;;;;;;;;16.80;65.90;;;;;;5089051;28;19908;-85
2023/01/17 14:26:10;;;;;;;;;;;16.80;65.80;;;;;;5089097;28;20475;-85
2023/01/17 14:28:35;;;;;;;;;;;16.70;65.90;;;;;;5090978;28;19908;-85
2023/01/17 14:31:06;;;;;;;;;;;16.80;66.00;;;;;;5089502;28;20288;-85
2023/01/17 14:33:38;;;;;;;;;;;16.80;66.00;;;;;;5091086;28;19964;-85
2023/01/17 14:36:05;;;;;;;;;;;16.80;65.80;;;;;;5090002;28;20265;-85
2023/01/17 14:38:32;;;;;;;;;;;16.80;65.60;;;;;;5088105;28;19926;-84
2023/01/17 14:41:06;;;;;;;;;;;16.90;65.50;;;;;;5087961;28;19916;-84
2023/01/17 14:43:33;;;;;;;;;;;16.90;65.30;;;;;;5085741;28;19908;-84
2023/01/17 14:46:04;;;;;;;;;;;16.90;65.00;;;;;;5088083;28;19908;-84
2023/01/17 14:48:30;;;;;;;;;;;16.90;64.90;;;;;;5088879;28;20007;-84
2023/01/17 14:50:58;;;;;;;;;;;17.00;64.70;;;;;;5087283;28;20154;-84
2023/01/17 14:53:31;;;;;;;;;;;17.00;64.60;;;;;;5087147;28;19909;-85
2023/01/17 14:55:56;;;;;;;;;;;17.00;64.60;;;;;;5086230;28;20135;-85
2023/01/17 14:58:24;;;;;;;;;;;17.00;64.60;;;;;;5087192;28;19919;-85
2023/01/17 15:00:51;;;;;;;;;;;16.90;64.60;;;;;;5087746;28;20026;-83
2023/01/17 15:03:16;;;;;;;;;;;16.90;64.60;;;;;;5086046;28;20387;-83
2023/01/17 15:05:44;;;;;;;;;;;16.90;64.80;;;;;;5087322;28;20284;-83
2023/01/17 15:08:12;;;;;;;;;;;16.90;65.60;;;;;;5085377;28;20165;-83
2023/01/17 15:10:45;;;;;;;;;;;16.90;65.10;;;;;;5085601;28;20107;-83
2023/01/17 15:13:13;;;;;;;;;;;16.80;65.20;;;;;;5085559;28;20177;-83
2023/01/17 15:15:41;;;;;;;;;;;16.80;65.30;;;;;;5088378;28;19919;-83
2023/01/17 15:18:08;;;;;;;;;;;16.80;65.40;;;;;;5086193;28;20376;-83
2023/01/17 15:20:33;;;;;;;;;;;16.80;65.50;;;;;;5087089;28;19912;-84
2023/01/17 15:22:59;;;;;;;;;;;16.80;65.60;;;;;;5085631;28;19908;-84
2023/01/17 15:25:28;;;;;;;;;;;16.80;65.70;;;;;;5086498;28;19919;-84
2023/01/17 15:27:53;;;;;;;;;;;16.70;65.70;;;;;;5087452;28;20300;-84
2023/01/17 15:30:23;;;;;;;;;;;16.70;65.90;;;;;;5085557;28;20202;-84
2023/01/17 15:32:50;;;;;;;;;;;16.70;65.90;;;;;;5086242;28;20439;-84
2023/01/17 15:35:19;;;;;;;;;;;16.70;65.90;;;;;;5085549;28;20300;-84
2023/01/17 15:37:50;;;;;;;;;;;16.70;65.70;;;;;;5085751;28;19972;-85
2023/01/17 15:40:21;;;;;;;;;;;16.60;65.20;;;;;;5086247;28;20119;-85
2023/01/17 15:43:03;;;;;;;;;;;16.60;65.00;;;;;;5088343;28;20270;-84
2023/01/17 15:45:30;;;;;;;;;;;16.60;65.10;;;;;;5087785;28;19998;-85
2023/01/17 15:47:58;;;;;;;;;;;16.60;64.70;;;;;;5086156;28;19912;-85